createdAt,value
2018-05-04T00:00:31.141Z,92.20
2018-05-04T00:02:58.777Z,92.20
2018-05-04T00:05:27.172Z,92.20
2018-05-04T00:07:55.026Z,92.20
2018-05-04T00:10:22.645Z,92.20
2018-05-04T00:12:50.225Z,92.40
2018-05-04T00:15:18.648Z,92.60
2018-05-04T00:17:46.244Z,92.80
2018-05-04T00:20:13.871Z,93.00
2018-05-04T00:22:41.551Z,93.10
2018-05-04T00:25:09.176Z,93.20
2018-05-04T00:27:36.839Z,93.20
2018-05-04T00:30:04.537Z,93.30
2018-05-04T00:32:32.165Z,93.30
2018-05-04T00:34:59.767Z,93.50
2018-05-04T00:37:27.428Z,93.70
2018-05-04T00:39:55.088Z,93.90
2018-05-04T00:42:22.676Z,93.90
2018-05-04T00:44:51.136Z,94.00
2018-05-04T00:47:18.794Z,94.00
2018-05-04T00:49:46.403Z,93.80
2018-05-04T00:52:14.040Z,93.90
2018-05-04T00:54:41.690Z,93.80
2018-05-04T00:57:09.346Z,93.70
2018-05-04T00:59:37.100Z,93.80
2018-05-04T01:02:04.750Z,94.00
2018-05-04T01:04:32.402Z,93.70
2018-05-04T01:07:00.016Z,93.60
2018-05-04T01:09:27.662Z,93.30
2018-05-04T01:11:55.307Z,93.30
2018-05-04T01:14:22.988Z,93.20
2018-05-04T01:16:51.152Z,93.20
2018-05-04T01:19:18.872Z,93.00
2018-05-04T01:21:47.252Z,92.80
2018-05-04T01:24:14.875Z,92.80
2018-05-04T01:26:42.707Z,92.80
2018-05-04T01:29:10.434Z,92.80
2018-05-04T01:31:38.049Z,92.90
2018-05-04T01:34:05.639Z,92.80
2018-05-04T01:36:33.349Z,92.80
2018-05-04T01:39:01.766Z,92.60
2018-05-04T01:41:29.391Z,92.60
2018-05-04T01:43:57.763Z,92.30
2018-05-04T01:46:25.392Z,92.30
2018-05-04T01:48:52.978Z,92.10
2018-05-04T01:51:21.403Z,92.00
2018-05-04T01:53:49.016Z,92.00
2018-05-04T01:56:17.240Z,92.00
2018-05-04T01:58:44.872Z,91.90
2018-05-04T02:01:12.489Z,91.90
2018-05-04T02:03:40.146Z,91.80
2018-05-04T02:06:07.848Z,91.90
2018-05-04T02:08:35.472Z,92.00
2018-05-04T02:11:03.213Z,92.10
2018-05-04T02:13:31.286Z,92.00
2018-05-04T02:15:59.688Z,92.10
2018-05-04T02:18:27.289Z,92.10
2018-05-04T02:20:54.987Z,92.10
2018-05-04T02:23:23.009Z,92.10
2018-05-04T02:25:50.602Z,92.20
2018-05-04T02:28:18.244Z,92.30
2018-05-04T02:30:45.887Z,92.50
2018-05-04T02:33:13.621Z,92.60
2018-05-04T02:35:41.237Z,92.50
2018-05-04T02:38:09.663Z,92.50
2018-05-04T02:40:37.437Z,92.50
2018-05-04T02:43:05.096Z,92.40
2018-05-04T02:45:33.572Z,92.40
2018-05-04T02:48:02.713Z,92.40
2018-05-04T02:50:30.329Z,92.30
2018-05-04T02:52:57.935Z,92.20
2018-05-04T02:55:25.627Z,92.20
2018-05-04T02:57:53.297Z,92.30
2018-05-04T03:00:20.902Z,92.30
2018-05-04T03:02:49.288Z,92.30
2018-05-04T03:05:17.006Z,92.30
2018-05-04T03:07:45.456Z,92.30
2018-05-04T03:10:13.109Z,92.30
2018-05-04T03:12:41.647Z,92.30
2018-05-04T03:15:09.233Z,92.40
2018-05-04T03:17:36.939Z,92.40
2018-05-04T03:20:04.646Z,92.40
2018-05-04T03:22:32.238Z,92.50
2018-05-04T03:24:59.865Z,92.50
2018-05-04T03:27:28.534Z,92.50
2018-05-04T03:29:56.157Z,92.50
2018-05-04T03:32:23.784Z,92.60
2018-05-04T03:34:51.420Z,92.60
2018-05-04T03:37:19.036Z,92.70
2018-05-04T03:39:46.697Z,92.80
2018-05-04T03:42:14.315Z,92.90
2018-05-04T03:44:42.878Z,93.10
2018-05-04T03:47:10.566Z,93.20
2018-05-04T03:49:38.228Z,93.10
2018-05-04T03:52:05.904Z,93.20
2018-05-04T03:54:33.575Z,93.10
2018-05-04T04:00:12.839Z,93.10
2018-05-04T04:02:52.124Z,93.30
2018-05-04T04:05:20.545Z,93.60
2018-05-04T04:07:48.992Z,93.50
2018-05-04T04:10:16.648Z,93.60
2018-05-04T04:12:45.039Z,93.80
2018-05-04T04:15:13.396Z,93.80
2018-05-04T04:17:41.756Z,93.80
2018-05-04T04:20:09.394Z,93.90
2018-05-04T04:22:37.039Z,94.00
2018-05-04T04:25:04.756Z,94.00
2018-05-04T04:27:32.405Z,94.00
2018-05-04T04:30:00.109Z,94.10
2018-05-04T04:32:27.725Z,94.20
2018-05-04T04:34:55.335Z,94.20
2018-05-04T04:37:23.792Z,94.70
2018-05-04T04:39:51.418Z,94.70
2018-05-04T04:42:19.116Z,95.00
2018-05-04T04:44:46.815Z,95.20
2018-05-04T04:47:14.494Z,95.50
2018-05-04T04:49:42.878Z,95.90
2018-05-04T04:52:10.497Z,95.90
2018-05-04T04:54:38.120Z,96.00
2018-05-04T04:57:06.549Z,96.30
2018-05-04T04:59:34.147Z,96.30
2018-05-04T05:02:02.583Z,96.90
2018-05-04T05:04:30.200Z,96.90
2018-05-04T05:06:58.845Z,96.80
2018-05-04T05:09:26.445Z,96.80
2018-05-04T05:11:54.094Z,97.10
2018-05-04T05:14:21.687Z,97.30
2018-05-04T05:16:49.372Z,97.50
2018-05-04T05:19:17.003Z,97.60
2018-05-04T05:21:44.675Z,97.80
2018-05-04T05:24:12.634Z,97.90
2018-05-04T05:26:41.532Z,98.40
2018-05-04T05:29:10.073Z,98.80
2018-05-04T05:31:37.736Z,98.70
2018-05-04T05:34:05.405Z,98.80
2018-05-04T05:36:33.042Z,99.10
2018-05-04T05:39:00.655Z,99.30
2018-05-04T05:41:28.277Z,99.60
2018-05-04T05:43:56.625Z,99.70
2018-05-04T05:46:24.284Z,99.70
2018-05-04T05:48:52.709Z,99.80
2018-05-04T05:51:20.368Z,99.70
2018-05-04T05:53:48.029Z,99.70
2018-05-04T05:56:15.687Z,99.70
2018-05-04T05:58:43.280Z,99.50
2018-05-04T06:01:11.076Z,99.50
2018-05-04T06:03:38.755Z,99.40
2018-05-04T06:06:06.407Z,99.20
2018-05-04T06:08:34.037Z,98.80
2018-05-04T06:11:01.781Z,98.40
2018-05-04T06:13:29.566Z,98.10
2018-05-04T06:15:57.253Z,98.00
2018-05-04T06:18:24.890Z,98.30
2018-05-04T06:20:53.576Z,98.10
2018-05-04T06:23:22.722Z,98.00
2018-05-04T06:25:50.327Z,97.80
2018-05-04T06:28:17.960Z,96.70
2018-05-04T06:30:46.368Z,95.70
2018-05-04T06:33:14.007Z,95.70
2018-05-04T06:35:41.624Z,95.30
2018-05-04T06:38:09.719Z,95.00
2018-05-04T06:40:37.320Z,95.40
2018-05-04T06:43:05.062Z,95.00
2018-05-04T06:45:34.912Z,95.10
2018-05-04T06:48:03.531Z,94.90
2018-05-04T06:50:31.232Z,94.90
2018-05-04T06:52:59.876Z,95.10
2018-05-04T06:55:27.491Z,95.20
2018-05-04T06:57:56.824Z,94.90
2018-05-04T07:00:24.487Z,94.60
2018-05-04T07:02:54.138Z,94.40
2018-05-04T07:05:31.876Z,94.10
2018-05-04T07:08:07.586Z,93.60
2018-05-04T07:10:35.272Z,93.50
2018-05-04T07:13:02.918Z,93.30
2018-05-04T07:15:30.560Z,93.00
2018-05-04T07:17:58.213Z,92.60
2018-05-04T07:20:25.855Z,92.30
2018-05-04T07:22:53.485Z,92.20
2018-05-04T07:25:21.098Z,91.70
2018-05-04T07:27:49.970Z,91.00
2018-05-04T07:30:17.674Z,91.00
2018-05-04T07:32:45.319Z,90.80
2018-05-04T07:35:13.693Z,91.30
2018-05-04T07:37:41.390Z,91.30
2018-05-04T07:40:09.108Z,91.50
2018-05-04T07:42:36.721Z,91.60
2018-05-04T07:45:04.369Z,91.20
2018-05-04T07:47:31.982Z,91.30
2018-05-04T07:49:59.600Z,91.40
2018-05-04T07:52:27.304Z,91.60
2018-05-04T07:54:54.922Z,91.10
2018-05-04T07:57:22.553Z,90.40
2018-05-04T07:59:50.281Z,90.30
2018-05-04T08:02:19.345Z,89.00
2018-05-04T08:04:48.842Z,88.10
2018-05-04T08:07:17.239Z,88.50
2018-05-04T08:09:44.919Z,88.40
2018-05-04T08:12:12.561Z,88.20
2018-05-04T08:14:40.162Z,87.70
2018-05-04T08:17:07.836Z,86.90
2018-05-04T08:19:35.929Z,86.50
2018-05-04T08:22:03.999Z,86.60
2018-05-04T08:24:31.720Z,86.10
2018-05-04T08:26:59.352Z,85.10
2018-05-04T08:29:26.993Z,83.90
2018-05-04T08:31:54.633Z,84.70
2018-05-04T08:34:22.412Z,85.50
2018-05-04T08:36:50.158Z,86.00
2018-05-04T08:39:18.090Z,85.50
2018-05-04T08:41:45.744Z,84.10
2018-05-04T08:44:13.407Z,84.20
2018-05-04T08:46:42.143Z,83.30
2018-05-04T08:49:10.418Z,83.80
2018-05-04T08:51:38.214Z,82.40
2018-05-04T08:54:05.906Z,82.10
2018-05-04T08:56:33.539Z,80.30
2018-05-04T08:59:01.394Z,79.40
2018-05-04T09:01:29.851Z,77.60
2018-05-04T09:03:58.262Z,75.70
2018-05-04T09:06:25.936Z,75.50
2018-05-04T09:08:53.553Z,73.90
2018-05-04T09:11:21.962Z,73.40
2018-05-04T09:13:49.726Z,73.40
2018-05-04T09:16:17.388Z,73.00
2018-05-04T09:18:45.049Z,71.80
2018-05-04T09:21:12.669Z,72.80
2018-05-04T09:23:40.522Z,73.10
2018-05-04T09:26:08.151Z,72.70
2018-05-04T09:28:35.795Z,72.50
2018-05-04T09:31:03.420Z,72.10
2018-05-04T09:33:31.044Z,71.30
2018-05-04T09:35:58.687Z,70.20
2018-05-04T09:38:27.117Z,70.60
2018-05-04T09:40:54.716Z,70.60
2018-05-04T09:43:23.884Z,70.20
2018-05-04T09:45:51.496Z,70.20
2018-05-04T09:48:19.089Z,70.60
2018-05-04T09:50:46.869Z,71.40
2018-05-04T09:53:14.491Z,71.30
2018-05-04T09:55:42.148Z,71.80
2018-05-04T09:58:09.800Z,72.00
2018-05-04T10:00:38.896Z,71.40
2018-05-04T10:03:06.525Z,71.40
2018-05-04T10:05:35.333Z,71.90
2018-05-04T10:08:03.014Z,71.40
2018-05-04T10:10:30.612Z,71.10
2018-05-04T10:12:58.990Z,71.30
2018-05-04T10:15:26.594Z,71.30
2018-05-04T10:17:54.233Z,70.20
2018-05-04T10:20:21.847Z,67.50
2018-05-04T10:22:49.686Z,68.80
2018-05-04T10:25:17.621Z,68.40
2018-05-04T10:27:45.256Z,68.00
2018-05-04T10:30:12.881Z,66.90
2018-05-04T10:32:40.513Z,65.30
2018-05-04T10:35:08.201Z,64.10
2018-05-04T10:37:36.752Z,64.50
2018-05-04T10:40:05.365Z,65.50
2018-05-04T10:42:33.013Z,65.30
2018-05-04T10:45:01.526Z,65.90
2018-05-04T10:47:29.177Z,65.90
2018-05-04T10:49:57.683Z,64.60
2018-05-04T10:52:26.130Z,64.60
2018-05-04T10:54:54.690Z,64.70
2018-05-04T10:57:22.343Z,64.70
2018-05-04T10:59:49.936Z,65.20
2018-05-04T11:02:18.336Z,64.70
2018-05-04T11:04:45.939Z,64.70
2018-05-04T11:07:13.583Z,64.90
2018-05-04T11:09:41.276Z,64.20
2018-05-04T11:12:08.898Z,63.90
2018-05-04T11:14:36.529Z,63.30
2018-05-04T11:17:04.932Z,64.90
2018-05-04T11:19:32.680Z,64.40
2018-05-04T11:22:00.395Z,64.20
2018-05-04T11:24:28.050Z,64.80
2018-05-04T11:26:55.923Z,63.80
2018-05-04T11:29:24.358Z,64.30
2018-05-04T11:31:51.990Z,64.50
2018-05-04T11:34:19.644Z,64.30
2018-05-04T11:36:47.304Z,63.90
2018-05-04T11:39:15.741Z,63.10
2018-05-04T11:41:43.402Z,62.20
2018-05-04T11:44:11.064Z,61.00
2018-05-04T11:46:38.765Z,60.50
2018-05-04T11:49:06.840Z,59.80
2018-05-04T11:51:34.473Z,59.00
2018-05-04T11:54:02.764Z,58.30
2018-05-04T11:56:30.415Z,58.60
2018-05-04T11:58:58.816Z,60.80
2018-05-04T12:01:26.470Z,60.80
2018-05-04T12:03:54.052Z,63.60
2018-05-04T12:06:21.680Z,65.30
2018-05-04T12:08:49.272Z,67.70
2018-05-04T12:11:16.884Z,69.90
2018-05-04T12:13:44.497Z,71.10
2018-05-04T12:16:12.895Z,71.90
2018-05-04T12:18:40.508Z,71.90
2018-05-04T12:21:08.140Z,72.00
2018-05-04T12:23:35.872Z,71.50
2018-05-04T12:26:04.965Z,69.70
2018-05-04T12:28:32.593Z,69.70
2018-05-04T12:31:00.381Z,68.20
2018-05-04T12:33:28.047Z,66.30
2018-05-04T12:35:55.683Z,65.50
2018-05-04T12:38:23.305Z,62.90
2018-05-04T12:40:50.906Z,61.20
2018-05-04T12:43:18.583Z,62.10
2018-05-04T12:45:46.350Z,61.70
2018-05-04T12:48:13.974Z,60.80
2018-05-04T12:50:41.600Z,59.90
2018-05-04T12:53:10.030Z,59.30
2018-05-04T12:55:40.014Z,59.70
2018-05-04T12:58:07.756Z,58.00
2018-05-04T13:00:36.203Z,57.10
2018-05-04T13:03:03.912Z,57.10
2018-05-04T13:05:32.296Z,56.10
2018-05-04T13:08:00.905Z,55.70
2018-05-04T13:10:29.381Z,56.60
2018-05-04T13:12:57.815Z,56.20
2018-05-04T13:15:26.456Z,56.40
2018-05-04T13:17:54.089Z,56.40
2018-05-04T13:20:21.905Z,57.10
2018-05-04T13:22:49.574Z,57.60
2018-05-04T13:25:18.039Z,57.90
2018-05-04T13:27:45.695Z,58.40
2018-05-04T13:30:13.324Z,58.80
2018-05-04T13:32:40.957Z,58.90
2018-05-04T13:35:08.588Z,58.20
2018-05-04T13:37:37.023Z,58.90
2018-05-04T13:40:04.704Z,58.90
2018-05-04T13:42:32.383Z,59.20
2018-05-04T13:45:00.111Z,59.40
2018-05-04T13:47:27.737Z,59.50
2018-05-04T13:49:55.439Z,59.60
2018-05-04T13:52:23.450Z,59.40
2018-05-04T13:54:51.175Z,59.40
2018-05-04T13:57:19.069Z,59.00
2018-05-04T13:59:47.467Z,57.80
2018-05-04T14:02:15.182Z,57.90
2018-05-04T14:04:42.835Z,58.70
2018-05-04T14:07:10.733Z,59.50
2018-05-04T14:09:38.400Z,59.50
2018-05-04T14:12:06.125Z,59.90
2018-05-04T14:14:34.770Z,60.30
2018-05-04T14:17:02.589Z,59.20
2018-05-04T14:19:30.557Z,57.80
2018-05-04T14:21:58.323Z,57.60
2018-05-04T14:24:26.121Z,58.60
2018-05-04T14:26:55.103Z,58.00
2018-05-04T14:29:22.725Z,56.70
2018-05-04T14:31:50.486Z,57.70
2018-05-04T14:34:18.797Z,58.30
2018-05-04T14:36:47.033Z,57.80
2018-05-04T14:39:14.977Z,57.30
2018-05-04T14:41:43.429Z,57.50
2018-05-04T14:44:11.122Z,56.90
2018-05-04T14:46:38.732Z,56.70
2018-05-04T14:49:06.341Z,57.10
2018-05-04T14:51:34.855Z,57.20
2018-05-04T14:54:02.528Z,57.10
2018-05-04T14:56:30.196Z,57.30
2018-05-04T14:58:57.835Z,56.60
2018-05-04T15:01:25.473Z,56.30
2018-05-04T15:03:53.102Z,56.50
2018-05-04T15:06:21.572Z,56.50
2018-05-04T15:08:49.226Z,56.80
2018-05-04T15:11:16.936Z,57.90
2018-05-04T15:13:45.360Z,57.30
2018-05-04T15:16:12.958Z,57.20
2018-05-04T15:18:40.603Z,57.50
2018-05-04T15:21:08.243Z,57.20
2018-05-04T15:23:35.885Z,57.80
2018-05-04T15:26:03.599Z,57.90
2018-05-04T15:28:31.290Z,58.60
2018-05-04T15:30:59.680Z,58.20
2018-05-04T15:33:28.072Z,58.50
2018-05-04T15:35:55.746Z,58.50
2018-05-04T15:38:23.416Z,58.50
2018-05-04T15:40:51.056Z,58.70
2018-05-04T15:43:18.648Z,58.60
2018-05-04T15:45:46.348Z,58.00
2018-05-04T15:48:19.716Z,58.20
2018-05-04T15:50:53.303Z,58.30
2018-05-04T15:53:21.047Z,58.30
2018-05-04T15:55:49.476Z,59.70
2018-05-04T15:58:17.095Z,59.70
2018-05-04T16:00:46.405Z,59.50
2018-05-04T16:03:14.789Z,59.40
2018-05-04T16:05:43.175Z,59.00
2018-05-04T16:08:10.809Z,58.90
2018-05-04T16:10:38.424Z,60.10
2018-05-04T16:13:06.051Z,59.40
2018-05-04T16:15:34.516Z,59.00
2018-05-04T16:18:02.118Z,59.00
2018-05-04T16:20:29.768Z,59.30
2018-05-04T16:22:57.583Z,59.40
2018-05-04T16:25:25.196Z,59.70
2018-05-04T16:27:54.457Z,60.30
2018-05-04T16:30:22.745Z,60.10
2018-05-04T16:32:50.409Z,59.90
2018-05-04T16:35:18.375Z,59.70
2018-05-04T16:37:45.996Z,59.50
2018-05-04T16:40:13.617Z,59.90
2018-05-04T16:42:41.359Z,60.00
2018-05-04T16:45:09.010Z,60.80
2018-05-04T16:47:42.339Z,61.20
2018-05-04T16:50:09.962Z,60.50
2018-05-04T16:52:37.560Z,60.70
2018-05-04T16:55:05.382Z,61.10
2018-05-04T16:57:33.283Z,61.10
2018-05-04T17:00:00.936Z,61.00
2018-05-04T17:02:28.918Z,60.80
2018-05-04T17:04:56.585Z,61.00
2018-05-04T17:07:24.240Z,60.90
2018-05-04T17:09:51.950Z,61.20
2018-05-04T17:12:19.766Z,61.40
2018-05-04T17:14:47.508Z,61.20
2018-05-04T17:17:15.969Z,61.40
2018-05-04T17:19:43.649Z,61.40
2018-05-04T17:22:11.575Z,61.20
2018-05-04T17:24:39.224Z,61.50
2018-05-04T17:27:06.979Z,61.50
2018-05-04T17:29:34.745Z,61.80
2018-05-04T17:32:02.539Z,61.90
2018-05-04T17:34:30.222Z,62.00
2018-05-04T17:36:57.919Z,62.20
2018-05-04T17:39:25.645Z,61.60
2018-05-04T17:41:53.360Z,61.70
2018-05-04T17:44:21.783Z,62.30
2018-05-04T17:46:49.477Z,62.20
2018-05-04T17:49:17.146Z,62.70
2018-05-04T17:51:46.269Z,63.30
2018-05-04T17:54:14.640Z,63.20
2018-05-04T17:56:42.324Z,63.10
2018-05-04T17:59:10.729Z,63.10
2018-05-04T18:01:38.342Z,63.10
2018-05-04T18:04:06.064Z,64.00
2018-05-04T18:06:33.723Z,65.00
2018-05-04T18:09:01.341Z,65.80
2018-05-04T18:11:29.038Z,65.80
2018-05-04T18:13:56.671Z,66.60
2018-05-04T18:16:24.319Z,67.10
2018-05-04T18:18:51.975Z,67.60
2018-05-04T18:21:19.641Z,67.90
2018-05-04T18:23:47.312Z,68.70
2018-05-04T18:26:15.115Z,68.60
2018-05-04T18:28:42.744Z,69.20
2018-05-04T18:31:10.342Z,69.50
2018-05-04T18:33:38.004Z,69.50
2018-05-04T18:36:05.709Z,69.40
2018-05-04T18:38:33.355Z,69.20
2018-05-04T18:41:01.024Z,69.00
2018-05-04T18:43:28.629Z,68.80
2018-05-04T18:45:56.310Z,69.80
2018-05-04T18:48:25.553Z,71.10
2018-05-04T18:50:53.065Z,71.10
2018-05-04T18:53:21.489Z,71.30
2018-05-04T18:55:49.323Z,71.30
2018-05-04T18:58:16.937Z,71.20
2018-05-04T19:00:44.570Z,71.20
2018-05-04T19:03:17.762Z,71.30
2018-05-04T19:05:45.408Z,71.80
2018-05-04T19:08:13.026Z,72.40
2018-05-04T19:10:40.662Z,72.90
2018-05-04T19:13:09.032Z,74.30
2018-05-04T19:15:36.692Z,74.30
2018-05-04T19:18:04.304Z,74.60
2018-05-04T19:20:32.048Z,75.20
2018-05-04T19:22:59.636Z,75.90
2018-05-04T19:25:27.405Z,76.20
2018-05-04T19:27:55.023Z,76.70
2018-05-04T19:30:22.649Z,76.90
2018-05-04T19:32:50.338Z,77.30
2018-05-04T19:35:17.940Z,77.80
2018-05-04T19:37:45.578Z,78.10
2018-05-04T19:40:14.011Z,77.80
2018-05-04T19:42:41.675Z,77.80
2018-05-04T19:45:09.291Z,78.20
2018-05-04T19:47:37.651Z,78.10
2018-05-04T19:50:05.382Z,78.10
2018-05-04T19:52:33.078Z,78.10
2018-05-04T19:55:00.731Z,78.40
2018-05-04T19:57:28.356Z,79.00
2018-05-04T19:59:55.999Z,79.50
2018-05-04T20:02:23.709Z,80.20
2018-05-04T20:04:51.328Z,80.90
2018-05-04T20:07:19.726Z,81.70
2018-05-04T20:09:47.346Z,81.70
2018-05-04T20:12:14.983Z,82.50
2018-05-04T20:14:42.587Z,83.20
2018-05-04T20:17:10.255Z,84.00
2018-05-04T20:19:38.622Z,85.50
2018-05-04T20:22:06.351Z,85.50
2018-05-04T20:24:33.971Z,86.00
2018-05-04T20:27:01.574Z,86.40
2018-05-04T20:29:29.453Z,86.90
2018-05-04T20:31:57.175Z,87.10
2018-05-04T20:34:25.580Z,88.00
2018-05-04T20:36:53.338Z,88.00
2018-05-04T20:39:20.988Z,88.30
2018-05-04T20:41:48.635Z,88.70
2018-05-04T20:44:17.016Z,89.10
2018-05-04T20:46:44.658Z,89.10
2018-05-04T20:49:12.879Z,89.40
2018-05-04T20:51:41.339Z,90.00
2018-05-04T20:54:08.948Z,90.00
2018-05-04T20:56:36.628Z,90.10
2018-05-04T20:59:04.280Z,90.20
2018-05-04T21:01:32.163Z,90.50
2018-05-04T21:03:59.843Z,90.80
2018-05-04T21:06:27.433Z,90.80
2018-05-04T21:08:55.062Z,91.40
2018-05-04T21:11:22.666Z,91.80
2018-05-04T21:13:50.299Z,92.20
2018-05-04T21:16:18.560Z,92.50
2018-05-04T21:18:46.167Z,93.00
2018-05-04T21:21:14.568Z,93.50
2018-05-04T21:23:42.968Z,93.60
2018-05-04T21:26:12.292Z,93.50
2018-05-04T21:28:40.367Z,93.50
2018-05-04T21:31:08.226Z,93.40
2018-05-04T21:33:36.598Z,93.50
2018-05-04T21:36:04.241Z,93.50
2018-05-04T21:38:32.647Z,93.30
2018-05-04T21:41:02.090Z,93.20
2018-05-04T21:43:34.927Z,93.20
2018-05-04T21:46:02.659Z,93.00
2018-05-04T21:48:30.285Z,92.80
2018-05-04T21:50:57.966Z,92.70
2018-05-04T21:53:25.615Z,92.50
2018-05-04T21:55:53.300Z,92.40
2018-05-04T21:58:20.935Z,92.30
2018-05-04T22:00:48.594Z,92.10
2018-05-04T22:03:16.226Z,92.00
2018-05-04T22:05:45.476Z,91.90
2018-05-04T22:08:13.117Z,91.90
2018-05-04T22:10:41.415Z,91.70
2018-05-04T22:13:09.039Z,91.70
2018-05-04T22:15:36.690Z,91.60
2018-05-04T22:18:05.859Z,91.30
2018-05-04T22:20:33.562Z,91.30
2018-05-04T22:23:01.968Z,92.40
2018-05-04T22:25:29.925Z,92.40
2018-05-04T22:27:58.518Z,93.90
2018-05-04T22:30:26.163Z,93.90
2018-05-04T22:32:53.821Z,94.70
2018-05-04T22:35:21.736Z,95.40
2018-05-04T22:37:49.649Z,96.70
2018-05-04T22:40:17.341Z,97.40
2018-05-04T22:42:45.750Z,98.40
2018-05-04T22:45:14.022Z,98.40
2018-05-04T22:47:41.718Z,98.70
2018-05-04T22:50:09.591Z,98.50
2018-05-04T22:52:37.479Z,98.70
2018-05-04T22:55:05.269Z,98.80
2018-05-04T22:57:32.998Z,99.00
2018-05-04T23:00:00.792Z,99.20
2018-05-04T23:02:28.724Z,99.20
2018-05-04T23:04:56.622Z,99.30
2018-05-04T23:07:25.216Z,99.60
2018-05-04T23:09:52.984Z,99.70
2018-05-04T23:12:20.607Z,99.90
2018-05-04T23:14:48.220Z,99.90
2018-05-04T23:17:15.845Z,99.90
2018-05-04T23:19:43.490Z,99.90
2018-05-04T23:22:11.176Z,99.90
2018-05-04T23:24:38.813Z,99.90
2018-05-04T23:27:06.440Z,99.90
2018-05-04T23:29:34.175Z,99.90
2018-05-04T23:32:01.812Z,99.90
2018-05-04T23:34:29.564Z,99.90
2018-05-04T23:36:57.946Z,99.90
2018-05-04T23:39:25.636Z,99.90
2018-05-04T23:41:53.277Z,99.90
2018-05-04T23:44:21.634Z,99.90
2018-05-04T23:46:50.024Z,99.90
2018-05-04T23:49:17.661Z,99.90
2018-05-04T23:51:45.309Z,99.90
2018-05-04T23:54:12.944Z,99.90
2018-05-04T23:56:40.570Z,99.90
2018-05-04T23:59:08.220Z,99.90
